sensor_id;sensor_type;location;lat;lon;timestamp;temperature;humidity
7494;DHT22;3788;49.902;8.590;2023-07-20T00:01:25;21.50;73.20
7494;DHT22;3788;49.902;8.590;2023-07-20T00:03:52;21.40;73.20
7494;DHT22;3788;49.902;8.590;2023-07-20T00:06:21;21.40;73.30
7494;DHT22;3788;49.902;8.590;2023-07-20T00:08:47;21.40;73.50
7494;DHT22;3788;49.902;8.590;2023-07-20T00:11:15;21.40;73.50
7494;DHT22;3788;49.902;8.590;2023-07-20T00:13:42;21.40;73.60
7494;DHT22;3788;49.902;8.590;2023-07-20T00:16:09;21.40;73.60
7494;DHT22;3788;49.902;8.590;2023-07-20T00:18:36;21.30;73.60
7494;DHT22;3788;49.902;8.590;2023-07-20T00:21:02;21.30;73.70
7494;DHT22;3788;49.902;8.590;2023-07-20T00:23:29;21.30;73.80
7494;DHT22;3788;49.902;8.590;2023-07-20T00:25:56;21.20;73.90
7494;DHT22;3788;49.902;8.590;2023-07-20T00:28:24;21.20;74.10
7494;DHT22;3788;49.902;8.590;2023-07-20T00:30:51;21.20;74.40
7494;DHT22;3788;49.902;8.590;2023-07-20T00:33:18;21.20;74.60
7494;DHT22;3788;49.902;8.590;2023-07-20T00:35:45;21.10;74.70
7494;DHT22;3788;49.902;8.590;2023-07-20T00:38:11;21.10;75.00
7494;DHT22;3788;49.902;8.590;2023-07-20T00:40:39;21.10;75.20
7494;DHT22;3788;49.902;8.590;2023-07-20T00:43:06;21.00;75.20
7494;DHT22;3788;49.902;8.590;2023-07-20T00:45:34;21.00;75.40
7494;DHT22;3788;49.902;8.590;2023-07-20T00:48:01;21.00;75.60
7494;DHT22;3788;49.902;8.590;2023-07-20T00:50:28;20.90;75.60
7494;DHT22;3788;49.902;8.590;2023-07-20T00:52:56;20.90;75.70
7494;DHT22;3788;49.902;8.590;2023-07-20T00:55:23;20.90;75.90
7494;DHT22;3788;49.902;8.590;2023-07-20T00:57:51;20.90;76.10
7494;DHT22;3788;49.902;8.590;2023-07-20T01:00:17;20.80;76.20
7494;DHT22;3788;49.902;8.590;2023-07-20T01:02:46;20.80;76.40
7494;DHT22;3788;49.902;8.590;2023-07-20T01:05:13;20.70;76.60
7494;DHT22;3788;49.902;8.590;2023-07-20T01:07:48;20.70;76.90
7494;DHT22;3788;49.902;8.590;2023-07-20T01:10:22;20.60;77.10
7494;DHT22;3788;49.902;8.590;2023-07-20T01:12:52;20.50;77.30
7494;DHT22;3788;49.902;8.590;2023-07-20T01:15:20;20.50;77.50
7494;DHT22;3788;49.902;8.590;2023-07-20T01:17:48;20.40;77.80
7494;DHT22;3788;49.902;8.590;2023-07-20T01:20:19;20.40;78.20
7494;DHT22;3788;49.902;8.590;2023-07-20T01:23:07;20.30;78.70
7494;DHT22;3788;49.902;8.590;2023-07-20T01:25:59;20.20;79.10
7494;DHT22;3788;49.902;8.590;2023-07-20T01:28:43;20.10;79.40
7494;DHT22;3788;49.902;8.590;2023-07-20T01:31:21;20.10;79.90
7494;DHT22;3788;49.902;8.590;2023-07-20T01:33:51;20.00;80.20
7494;DHT22;3788;49.902;8.590;2023-07-20T01:36:18;19.90;80.50
7494;DHT22;3788;49.902;8.590;2023-07-20T01:38:46;19.80;80.70
7494;DHT22;3788;49.902;8.590;2023-07-20T01:41:13;19.80;81.10
7494;DHT22;3788;49.902;8.590;2023-07-20T01:43:41;19.70;81.50
7494;DHT22;3788;49.902;8.590;2023-07-20T01:46:08;19.70;81.90
7494;DHT22;3788;49.902;8.590;2023-07-20T01:48:36;19.60;82.10
7494;DHT22;3788;49.902;8.590;2023-07-20T01:51:03;19.60;82.40
7494;DHT22;3788;49.902;8.590;2023-07-20T01:53:30;19.60;82.70
7494;DHT22;3788;49.902;8.590;2023-07-20T01:55:57;19.50;82.90
7494;DHT22;3788;49.902;8.590;2023-07-20T01:58:24;19.40;83.10
7494;DHT22;3788;49.902;8.590;2023-07-20T02:00:51;19.40;83.40
7494;DHT22;3788;49.902;8.590;2023-07-20T02:03:17;19.30;83.60
7494;DHT22;3788;49.902;8.590;2023-07-20T02:05:45;19.20;83.90
7494;DHT22;3788;49.902;8.590;2023-07-20T02:08:12;19.20;84.50
7494;DHT22;3788;49.902;8.590;2023-07-20T02:10:38;19.10;84.50
7494;DHT22;3788;49.902;8.590;2023-07-20T02:13:05;19.10;84.80
7494;DHT22;3788;49.902;8.590;2023-07-20T02:15:32;19.10;85.10
7494;DHT22;3788;49.902;8.590;2023-07-20T02:17:58;19.00;85.30
7494;DHT22;3788;49.902;8.590;2023-07-20T02:20:25;19.00;85.50
7494;DHT22;3788;49.902;8.590;2023-07-20T02:22:54;19.00;85.70
7494;DHT22;3788;49.902;8.590;2023-07-20T02:25:21;19.00;85.90
7494;DHT22;3788;49.902;8.590;2023-07-20T02:27:48;18.90;85.80
7494;DHT22;3788;49.902;8.590;2023-07-20T02:30:14;18.90;85.80
7494;DHT22;3788;49.902;8.590;2023-07-20T02:32:43;18.90;85.90
7494;DHT22;3788;49.902;8.590;2023-07-20T02:35:11;18.90;85.80
7494;DHT22;3788;49.902;8.590;2023-07-20T02:37:38;18.80;85.60
7494;DHT22;3788;49.902;8.590;2023-07-20T02:40:07;18.90;85.40
7494;DHT22;3788;49.902;8.590;2023-07-20T02:42:34;18.80;85.40
7494;DHT22;3788;49.902;8.590;2023-07-20T02:45:01;18.80;85.50
7494;DHT22;3788;49.902;8.590;2023-07-20T02:47:29;18.80;85.50
7494;DHT22;3788;49.902;8.590;2023-07-20T02:49:56;18.70;85.40
7494;DHT22;3788;49.902;8.590;2023-07-20T02:52:23;18.70;85.30
7494;DHT22;3788;49.902;8.590;2023-07-20T02:54:50;18.70;85.40
7494;DHT22;3788;49.902;8.590;2023-07-20T02:57:18;18.70;85.40
7494;DHT22;3788;49.902;8.590;2023-07-20T02:59:45;18.70;85.50
7494;DHT22;3788;49.902;8.590;2023-07-20T03:02:12;18.70;85.50
7494;DHT22;3788;49.902;8.590;2023-07-20T03:04:39;18.70;85.40
7494;DHT22;3788;49.902;8.590;2023-07-20T03:07:05;18.70;85.50
7494;DHT22;3788;49.902;8.590;2023-07-20T03:09:32;18.60;85.30
7494;DHT22;3788;49.902;8.590;2023-07-20T03:11:59;18.60;85.40
7494;DHT22;3788;49.902;8.590;2023-07-20T03:14:27;18.60;85.50
7494;DHT22;3788;49.902;8.590;2023-07-20T03:16:54;18.50;85.70
7494;DHT22;3788;49.902;8.590;2023-07-20T03:19:21;18.50;85.80
7494;DHT22;3788;49.902;8.590;2023-07-20T03:21:47;18.40;86.00
7494;DHT22;3788;49.902;8.590;2023-07-20T03:24:16;18.30;86.40
7494;DHT22;3788;49.902;8.590;2023-07-20T03:26:42;18.20;86.80
7494;DHT22;3788;49.902;8.590;2023-07-20T03:29:09;18.20;87.30
7494;DHT22;3788;49.902;8.590;2023-07-20T03:31:37;18.10;87.60
7494;DHT22;3788;49.902;8.590;2023-07-20T03:34:04;18.10;87.80
7494;DHT22;3788;49.902;8.590;2023-07-20T03:36:31;18.00;88.00
7494;DHT22;3788;49.902;8.590;2023-07-20T03:38:58;18.00;88.30
7494;DHT22;3788;49.902;8.590;2023-07-20T03:41:24;17.90;88.40
7494;DHT22;3788;49.902;8.590;2023-07-20T03:43:51;17.90;88.60
7494;DHT22;3788;49.902;8.590;2023-07-20T03:46:18;17.80;89.00
7494;DHT22;3788;49.902;8.590;2023-07-20T03:48:46;17.70;89.40
7494;DHT22;3788;49.902;8.590;2023-07-20T03:51:13;17.70;90.10
7494;DHT22;3788;49.902;8.590;2023-07-20T03:53:40;17.60;90.30
7494;DHT22;3788;49.902;8.590;2023-07-20T03:56:06;17.50;90.50
7494;DHT22;3788;49.902;8.590;2023-07-20T03:58:33;17.40;90.60
7494;DHT22;3788;49.902;8.590;2023-07-20T04:00:59;17.30;90.90
7494;DHT22;3788;49.902;8.590;2023-07-20T04:03:27;17.30;91.10
7494;DHT22;3788;49.902;8.590;2023-07-20T04:05:55;17.20;91.20
7494;DHT22;3788;49.902;8.590;2023-07-20T04:08:23;17.20;91.40
7494;DHT22;3788;49.902;8.590;2023-07-20T04:10:50;17.20;91.50
7494;DHT22;3788;49.902;8.590;2023-07-20T04:13:17;17.20;91.60
7494;DHT22;3788;49.902;8.590;2023-07-20T04:15:44;17.20;91.70
7494;DHT22;3788;49.902;8.590;2023-07-20T04:18:11;17.20;91.70
7494;DHT22;3788;49.902;8.590;2023-07-20T04:20:37;17.20;91.80
7494;DHT22;3788;49.902;8.590;2023-07-20T04:23:05;17.20;92.10
7494;DHT22;3788;49.902;8.590;2023-07-20T04:25:32;17.20;92.10
7494;DHT22;3788;49.902;8.590;2023-07-20T04:28:05;17.20;92.10
7494;DHT22;3788;49.902;8.590;2023-07-20T04:30:34;17.20;92.10
7494;DHT22;3788;49.902;8.590;2023-07-20T04:33:01;17.20;92.20
7494;DHT22;3788;49.902;8.590;2023-07-20T04:35:48;17.20;92.20
7494;DHT22;3788;49.902;8.590;2023-07-20T04:38:16;17.30;92.30
7494;DHT22;3788;49.902;8.590;2023-07-20T04:40:44;17.30;92.40
7494;DHT22;3788;49.902;8.590;2023-07-20T04:43:11;17.30;92.40
7494;DHT22;3788;49.902;8.590;2023-07-20T04:45:38;17.40;92.40
7494;DHT22;3788;49.902;8.590;2023-07-20T04:48:08;17.40;92.30
7494;DHT22;3788;49.902;8.590;2023-07-20T04:50:35;17.50;92.30
7494;DHT22;3788;49.902;8.590;2023-07-20T04:53:02;17.60;92.30
7494;DHT22;3788;49.902;8.590;2023-07-20T04:55:30;17.60;92.20
7494;DHT22;3788;49.902;8.590;2023-07-20T04:57:59;17.60;92.20
7494;DHT22;3788;49.902;8.590;2023-07-20T05:00:26;17.60;92.30
7494;DHT22;3788;49.902;8.590;2023-07-20T05:02:52;17.70;92.40
7494;DHT22;3788;49.902;8.590;2023-07-20T05:05:19;17.70;92.40
7494;DHT22;3788;49.902;8.590;2023-07-20T05:07:46;17.80;92.50
7494;DHT22;3788;49.902;8.590;2023-07-20T05:10:13;17.80;92.40
7494;DHT22;3788;49.902;8.590;2023-07-20T05:12:41;17.90;92.30
7494;DHT22;3788;49.902;8.590;2023-07-20T05:15:08;18.00;92.10
7494;DHT22;3788;49.902;8.590;2023-07-20T05:17:35;18.10;91.90
7494;DHT22;3788;49.902;8.590;2023-07-20T05:20:02;18.10;91.60
7494;DHT22;3788;49.902;8.590;2023-07-20T05:22:30;18.20;91.50
7494;DHT22;3788;49.902;8.590;2023-07-20T05:24:57;18.30;91.40
7494;DHT22;3788;49.902;8.590;2023-07-20T05:27:23;18.40;91.30
7494;DHT22;3788;49.902;8.590;2023-07-20T05:29:51;18.40;91.10
7494;DHT22;3788;49.902;8.590;2023-07-20T05:32:18;18.50;91.00
7494;DHT22;3788;49.902;8.590;2023-07-20T05:34:45;18.50;91.00
7494;DHT22;3788;49.902;8.590;2023-07-20T05:37:11;18.50;91.00
7494;DHT22;3788;49.902;8.590;2023-07-20T05:39:38;18.60;91.00
7494;DHT22;3788;49.902;8.590;2023-07-20T05:42:05;18.60;91.00
7494;DHT22;3788;49.902;8.590;2023-07-20T05:44:32;18.60;90.80
7494;DHT22;3788;49.902;8.590;2023-07-20T05:47:00;18.70;90.90
7494;DHT22;3788;49.902;8.590;2023-07-20T05:49:28;18.70;90.70
7494;DHT22;3788;49.902;8.590;2023-07-20T05:51:55;18.80;90.70
7494;DHT22;3788;49.902;8.590;2023-07-20T05:54:23;18.80;90.60
7494;DHT22;3788;49.902;8.590;2023-07-20T05:56:50;18.80;90.50
7494;DHT22;3788;49.902;8.590;2023-07-20T05:59:17;18.90;90.50
7494;DHT22;3788;49.902;8.590;2023-07-20T06:01:45;18.90;90.50
7494;DHT22;3788;49.902;8.590;2023-07-20T06:04:13;18.90;90.50
7494;DHT22;3788;49.902;8.590;2023-07-20T06:06:40;19.00;90.60
7494;DHT22;3788;49.902;8.590;2023-07-20T06:09:07;19.00;90.60
7494;DHT22;3788;49.902;8.590;2023-07-20T06:11:37;19.00;90.70
7494;DHT22;3788;49.902;8.590;2023-07-20T06:14:04;19.10;90.70
7494;DHT22;3788;49.902;8.590;2023-07-20T06:16:30;19.10;90.60
7494;DHT22;3788;49.902;8.590;2023-07-20T06:18:59;19.10;90.70
7494;DHT22;3788;49.902;8.590;2023-07-20T06:21:27;19.20;90.70
7494;DHT22;3788;49.902;8.590;2023-07-20T06:23:54;19.20;90.60
7494;DHT22;3788;49.902;8.590;2023-07-20T06:26:21;19.40;90.60
7494;DHT22;3788;49.902;8.590;2023-07-20T06:28:48;19.50;90.40
7494;DHT22;3788;49.902;8.590;2023-07-20T06:31:14;19.50;90.40
7494;DHT22;3788;49.902;8.590;2023-07-20T06:33:41;19.60;90.40
7494;DHT22;3788;49.902;8.590;2023-07-20T06:36:08;19.60;90.30
7494;DHT22;3788;49.902;8.590;2023-07-20T06:38:36;19.70;90.30
7494;DHT22;3788;49.902;8.590;2023-07-20T06:41:03;19.80;90.40
7494;DHT22;3788;49.902;8.590;2023-07-20T06:43:30;19.90;90.30
7494;DHT22;3788;49.902;8.590;2023-07-20T06:45:56;20.00;90.20
7494;DHT22;3788;49.902;8.590;2023-07-20T06:48:23;20.10;89.70
7494;DHT22;3788;49.902;8.590;2023-07-20T06:50:49;20.20;89.00
7494;DHT22;3788;49.902;8.590;2023-07-20T06:53:16;20.20;88.60
7494;DHT22;3788;49.902;8.590;2023-07-20T06:55:45;20.30;88.60
7494;DHT22;3788;49.902;8.590;2023-07-20T06:58:11;20.30;88.30
7494;DHT22;3788;49.902;8.590;2023-07-20T07:00:38;20.30;88.40
7494;DHT22;3788;49.902;8.590;2023-07-20T07:03:05;20.50;88.50
7494;DHT22;3788;49.902;8.590;2023-07-20T07:05:35;20.60;88.30
7494;DHT22;3788;49.902;8.590;2023-07-20T07:08:02;20.80;87.90
7494;DHT22;3788;49.902;8.590;2023-07-20T07:10:29;21.00;87.80
7494;DHT22;3788;49.902;8.590;2023-07-20T07:12:57;21.30;87.30
7494;DHT22;3788;49.902;8.590;2023-07-20T07:15:23;21.50;86.20
7494;DHT22;3788;49.902;8.590;2023-07-20T07:17:51;21.80;85.80
7494;DHT22;3788;49.902;8.590;2023-07-20T07:20:18;22.00;85.00
7494;DHT22;3788;49.902;8.590;2023-07-20T07:22:44;22.20;84.10
7494;DHT22;3788;49.902;8.590;2023-07-20T07:25:12;22.40;83.20
7494;DHT22;3788;49.902;8.590;2023-07-20T07:27:38;22.40;82.70
7494;DHT22;3788;49.902;8.590;2023-07-20T07:30:07;22.50;82.80
7494;DHT22;3788;49.902;8.590;2023-07-20T07:32:34;22.50;82.30
7494;DHT22;3788;49.902;8.590;2023-07-20T07:35:01;22.40;81.80
7494;DHT22;3788;49.902;8.590;2023-07-20T07:37:28;22.40;82.10
7494;DHT22;3788;49.902;8.590;2023-07-20T07:39:54;22.50;82.30
7494;DHT22;3788;49.902;8.590;2023-07-20T07:42:22;22.50;82.30
7494;DHT22;3788;49.902;8.590;2023-07-20T07:44:48;22.40;82.20
7494;DHT22;3788;49.902;8.590;2023-07-20T07:47:17;22.30;82.10
7494;DHT22;3788;49.902;8.590;2023-07-20T07:49:43;22.30;82.20
7494;DHT22;3788;49.902;8.590;2023-07-20T07:52:10;22.30;82.40
7494;DHT22;3788;49.902;8.590;2023-07-20T07:54:37;22.40;82.90
7494;DHT22;3788;49.902;8.590;2023-07-20T07:57:04;22.50;81.70
7494;DHT22;3788;49.902;8.590;2023-07-20T07:59:30;22.80;81.60
7494;DHT22;3788;49.902;8.590;2023-07-20T08:02:02;23.60;80.20
7494;DHT22;3788;49.902;8.590;2023-07-20T08:04:30;24.60;79.30
7494;DHT22;3788;49.902;8.590;2023-07-20T08:06:58;25.70;75.80
7494;DHT22;3788;49.902;8.590;2023-07-20T08:09:25;26.60;72.90
7494;DHT22;3788;49.902;8.590;2023-07-20T08:11:52;27.30;70.40
7494;DHT22;3788;49.902;8.590;2023-07-20T08:14:18;27.90;67.90
7494;DHT22;3788;49.902;8.590;2023-07-20T08:16:45;28.30;64.90
7494;DHT22;3788;49.902;8.590;2023-07-20T08:19:12;28.70;64.80
7494;DHT22;3788;49.902;8.590;2023-07-20T08:21:40;28.90;63.60
7494;DHT22;3788;49.902;8.590;2023-07-20T08:24:07;28.90;63.20
7494;DHT22;3788;49.902;8.590;2023-07-20T08:26:34;28.30;62.90
7494;DHT22;3788;49.902;8.590;2023-07-20T08:29:01;27.70;63.40
7494;DHT22;3788;49.902;8.590;2023-07-20T08:31:28;27.20;63.40
7494;DHT22;3788;49.902;8.590;2023-07-20T08:33:54;26.60;64.00
7494;DHT22;3788;49.902;8.590;2023-07-20T08:36:22;26.20;65.60
7494;DHT22;3788;49.902;8.590;2023-07-20T08:38:50;26.50;66.40
7494;DHT22;3788;49.902;8.590;2023-07-20T08:41:17;26.60;66.00
7494;DHT22;3788;49.902;8.590;2023-07-20T08:43:46;26.90;66.00
7494;DHT22;3788;49.902;8.590;2023-07-20T08:46:13;26.70;65.30
7494;DHT22;3788;49.902;8.590;2023-07-20T08:48:42;26.60;65.50
7494;DHT22;3788;49.902;8.590;2023-07-20T08:51:10;26.90;65.50
7494;DHT22;3788;49.902;8.590;2023-07-20T08:53:38;27.20;64.20
7494;DHT22;3788;49.902;8.590;2023-07-20T08:56:06;27.70;63.50
7494;DHT22;3788;49.902;8.590;2023-07-20T08:58:35;28.10;63.00
7494;DHT22;3788;49.902;8.590;2023-07-20T09:01:02;28.40;62.60
7494;DHT22;3788;49.902;8.590;2023-07-20T09:03:30;29.10;61.90
7494;DHT22;3788;49.902;8.590;2023-07-20T09:05:56;29.50;60.50
7494;DHT22;3788;49.902;8.590;2023-07-20T09:08:23;29.40;60.30
7494;DHT22;3788;49.902;8.590;2023-07-20T09:10:50;29.30;58.40
7494;DHT22;3788;49.902;8.590;2023-07-20T09:13:18;28.80;58.80
7494;DHT22;3788;49.902;8.590;2023-07-20T09:15:53;28.20;59.70
7494;DHT22;3788;49.902;8.590;2023-07-20T09:18:24;27.90;60.40
7494;DHT22;3788;49.902;8.590;2023-07-20T09:20:51;28.10;60.20
7494;DHT22;3788;49.902;8.590;2023-07-20T09:23:18;28.50;59.30
7494;DHT22;3788;49.902;8.590;2023-07-20T09:25:47;28.90;58.70
7494;DHT22;3788;49.902;8.590;2023-07-20T09:28:17;29.30;57.80
7494;DHT22;3788;49.902;8.590;2023-07-20T09:30:44;29.60;57.40
7494;DHT22;3788;49.902;8.590;2023-07-20T09:33:18;29.80;56.30
7494;DHT22;3788;49.902;8.590;2023-07-20T09:35:45;30.10;56.50
7494;DHT22;3788;49.902;8.590;2023-07-20T09:38:11;30.20;55.10
7494;DHT22;3788;49.902;8.590;2023-07-20T09:40:38;30.40;55.30
7494;DHT22;3788;49.902;8.590;2023-07-20T09:43:08;30.60;54.70
7494;DHT22;3788;49.902;8.590;2023-07-20T09:45:39;30.60;54.10
7494;DHT22;3788;49.902;8.590;2023-07-20T09:48:07;30.80;53.90
7494;DHT22;3788;49.902;8.590;2023-07-20T09:50:34;30.70;53.60
7494;DHT22;3788;49.902;8.590;2023-07-20T09:53:06;30.70;53.70
7494;DHT22;3788;49.902;8.590;2023-07-20T09:55:34;30.90;53.10
7494;DHT22;3788;49.902;8.590;2023-07-20T09:58:02;30.70;53.20
7494;DHT22;3788;49.902;8.590;2023-07-20T10:00:29;30.30;53.70
7494;DHT22;3788;49.902;8.590;2023-07-20T10:02:58;30.10;53.60
7494;DHT22;3788;49.902;8.590;2023-07-20T10:05:28;29.90;53.10
7494;DHT22;3788;49.902;8.590;2023-07-20T10:07:58;29.90;53.40
7494;DHT22;3788;49.902;8.590;2023-07-20T10:10:26;30.10;53.30
7494;DHT22;3788;49.902;8.590;2023-07-20T10:12:53;30.30;54.00
7494;DHT22;3788;49.902;8.590;2023-07-20T10:15:22;30.40;54.10
7494;DHT22;3788;49.902;8.590;2023-07-20T10:17:59;30.40;53.80
7494;DHT22;3788;49.902;8.590;2023-07-20T10:20:27;30.20;53.40
7494;DHT22;3788;49.902;8.590;2023-07-20T10:22:55;29.80;53.20
7494;DHT22;3788;49.902;8.590;2023-07-20T10:25:23;29.30;53.60
7494;DHT22;3788;49.902;8.590;2023-07-20T10:27:51;28.60;54.70
7494;DHT22;3788;49.902;8.590;2023-07-20T10:30:18;28.10;56.00
7494;DHT22;3788;49.902;8.590;2023-07-20T10:32:45;27.70;55.70
7494;DHT22;3788;49.902;8.590;2023-07-20T10:35:16;27.30;56.20
7494;DHT22;3788;49.902;8.590;2023-07-20T10:37:51;26.90;56.10
7494;DHT22;3788;49.902;8.590;2023-07-20T10:40:25;26.60;56.90
7494;DHT22;3788;49.902;8.590;2023-07-20T10:42:57;26.40;57.30
7494;DHT22;3788;49.902;8.590;2023-07-20T10:45:36;26.30;57.70
7494;DHT22;3788;49.902;8.590;2023-07-20T10:48:04;26.20;57.60
7494;DHT22;3788;49.902;8.590;2023-07-20T10:50:33;26.20;57.80
7494;DHT22;3788;49.902;8.590;2023-07-20T10:53:14;26.20;57.80
7494;DHT22;3788;49.902;8.590;2023-07-20T10:55:41;26.20;58.20
7494;DHT22;3788;49.902;8.590;2023-07-20T10:58:10;26.20;58.60
7494;DHT22;3788;49.902;8.590;2023-07-20T11:00:38;26.40;58.50
7494;DHT22;3788;49.902;8.590;2023-07-20T11:03:27;26.50;57.30
7494;DHT22;3788;49.902;8.590;2023-07-20T11:05:56;26.70;58.10
7494;DHT22;3788;49.902;8.590;2023-07-20T11:08:38;26.70;58.20
7494;DHT22;3788;49.902;8.590;2023-07-20T11:11:22;26.80;58.60
7494;DHT22;3788;49.902;8.590;2023-07-20T11:13:56;26.90;58.60
7494;DHT22;3788;49.902;8.590;2023-07-20T11:16:34;27.00;57.60
7494;DHT22;3788;49.902;8.590;2023-07-20T11:19:02;27.10;57.00
7494;DHT22;3788;49.902;8.590;2023-07-20T11:21:34;27.10;56.90
7494;DHT22;3788;49.902;8.590;2023-07-20T11:24:03;26.90;55.90
7494;DHT22;3788;49.902;8.590;2023-07-20T11:26:30;26.80;55.70
7494;DHT22;3788;49.902;8.590;2023-07-20T11:29:05;26.60;56.20
7494;DHT22;3788;49.902;8.590;2023-07-20T11:31:35;26.70;57.40
7494;DHT22;3788;49.902;8.590;2023-07-20T11:34:02;26.90;57.40
7494;DHT22;3788;49.902;8.590;2023-07-20T11:36:31;27.00;57.50
7494;DHT22;3788;49.902;8.590;2023-07-20T11:38:58;27.10;57.00
7494;DHT22;3788;49.902;8.590;2023-07-20T11:41:25;27.10;57.00
7494;DHT22;3788;49.902;8.590;2023-07-20T11:43:52;27.10;57.30
7494;DHT22;3788;49.902;8.590;2023-07-20T11:46:20;27.10;57.10
7494;DHT22;3788;49.902;8.590;2023-07-20T11:48:46;27.10;56.60
7494;DHT22;3788;49.902;8.590;2023-07-20T11:51:14;27.10;56.50
7494;DHT22;3788;49.902;8.590;2023-07-20T11:53:44;27.10;56.70
7494;DHT22;3788;49.902;8.590;2023-07-20T11:56:11;27.10;56.20
7494;DHT22;3788;49.902;8.590;2023-07-20T11:58:42;27.10;56.50
7494;DHT22;3788;49.902;8.590;2023-07-20T12:01:09;27.20;56.90
7494;DHT22;3788;49.902;8.590;2023-07-20T12:03:37;27.20;57.10
7494;DHT22;3788;49.902;8.590;2023-07-20T12:06:07;27.10;56.90
7494;DHT22;3788;49.902;8.590;2023-07-20T12:08:34;27.10;56.70
7494;DHT22;3788;49.902;8.590;2023-07-20T12:11:02;27.00;56.80
7494;DHT22;3788;49.902;8.590;2023-07-20T12:13:37;26.90;56.20
7494;DHT22;3788;49.902;8.590;2023-07-20T12:16:10;26.80;55.70
7494;DHT22;3788;49.902;8.590;2023-07-20T12:18:38;26.70;55.50
7494;DHT22;3788;49.902;8.590;2023-07-20T12:21:06;26.70;55.60
7494;DHT22;3788;49.902;8.590;2023-07-20T12:23:38;26.70;55.40
7494;DHT22;3788;49.902;8.590;2023-07-20T12:26:08;26.80;55.50
7494;DHT22;3788;49.902;8.590;2023-07-20T12:28:38;26.80;55.40
7494;DHT22;3788;49.902;8.590;2023-07-20T12:31:06;26.90;55.90
7494;DHT22;3788;49.902;8.590;2023-07-20T12:33:33;26.90;55.60
7494;DHT22;3788;49.902;8.590;2023-07-20T12:36:00;26.90;55.40
7494;DHT22;3788;49.902;8.590;2023-07-20T12:38:27;26.90;55.50
7494;DHT22;3788;49.902;8.590;2023-07-20T12:40:55;26.90;55.30
7494;DHT22;3788;49.902;8.590;2023-07-20T12:43:23;26.90;55.60
7494;DHT22;3788;49.902;8.590;2023-07-20T12:45:49;26.90;56.50
7494;DHT22;3788;49.902;8.590;2023-07-20T12:48:16;26.80;56.40
7494;DHT22;3788;49.902;8.590;2023-07-20T12:50:42;26.80;56.20
7494;DHT22;3788;49.902;8.590;2023-07-20T12:53:09;26.70;56.60
7494;DHT22;3788;49.902;8.590;2023-07-20T12:55:37;26.60;56.70
7494;DHT22;3788;49.902;8.590;2023-07-20T12:58:03;26.50;56.40
7494;DHT22;3788;49.902;8.590;2023-07-20T13:00:31;26.50;56.60
7494;DHT22;3788;49.902;8.590;2023-07-20T13:02:58;26.40;56.50
7494;DHT22;3788;49.902;8.590;2023-07-20T13:05:25;26.40;56.80
7494;DHT22;3788;49.902;8.590;2023-07-20T13:07:52;26.40;57.00
7494;DHT22;3788;49.902;8.590;2023-07-20T13:10:20;26.50;57.20
7494;DHT22;3788;49.902;8.590;2023-07-20T13:12:46;26.40;57.00
7494;DHT22;3788;49.902;8.590;2023-07-20T13:15:13;26.30;56.90
7494;DHT22;3788;49.902;8.590;2023-07-20T13:17:41;26.30;57.10
7494;DHT22;3788;49.902;8.590;2023-07-20T13:20:09;26.30;57.20
7494;DHT22;3788;49.902;8.590;2023-07-20T13:22:37;26.30;57.10
7494;DHT22;3788;49.902;8.590;2023-07-20T13:25:05;26.20;57.20
7494;DHT22;3788;49.902;8.590;2023-07-20T13:27:32;26.20;57.60
7494;DHT22;3788;49.902;8.590;2023-07-20T13:29:59;26.20;57.80
7494;DHT22;3788;49.902;8.590;2023-07-20T13:32:27;26.10;57.50
7494;DHT22;3788;49.902;8.590;2023-07-20T13:34:55;26.10;57.40
7494;DHT22;3788;49.902;8.590;2023-07-20T13:37:26;26.00;57.20
7494;DHT22;3788;49.902;8.590;2023-07-20T13:39:53;26.10;57.70
7494;DHT22;3788;49.902;8.590;2023-07-20T13:42:20;26.10;56.90
7494;DHT22;3788;49.902;8.590;2023-07-20T13:44:47;26.20;56.60
7494;DHT22;3788;49.902;8.590;2023-07-20T13:47:14;26.20;56.30
7494;DHT22;3788;49.902;8.590;2023-07-20T13:49:41;26.20;55.70
7494;DHT22;3788;49.902;8.590;2023-07-20T13:52:09;26.20;56.20
7494;DHT22;3788;49.902;8.590;2023-07-20T13:54:36;26.20;56.30
7494;DHT22;3788;49.902;8.590;2023-07-20T13:57:03;26.20;56.50
7494;DHT22;3788;49.902;8.590;2023-07-20T13:59:30;26.20;56.20
7494;DHT22;3788;49.902;8.590;2023-07-20T14:01:57;26.30;56.10
7494;DHT22;3788;49.902;8.590;2023-07-20T14:04:23;26.30;55.70
7494;DHT22;3788;49.902;8.590;2023-07-20T14:06:50;26.40;55.70
7494;DHT22;3788;49.902;8.590;2023-07-20T14:09:19;26.50;55.70
7494;DHT22;3788;49.902;8.590;2023-07-20T14:11:45;26.60;55.70
7494;DHT22;3788;49.902;8.590;2023-07-20T14:14:13;26.60;54.90
7494;DHT22;3788;49.902;8.590;2023-07-20T14:16:40;26.50;54.70
7494;DHT22;3788;49.902;8.590;2023-07-20T14:19:07;26.50;54.80
7494;DHT22;3788;49.902;8.590;2023-07-20T14:21:34;26.50;54.60
7494;DHT22;3788;49.902;8.590;2023-07-20T14:24:02;26.50;54.70
7494;DHT22;3788;49.902;8.590;2023-07-20T14:26:30;26.40;54.60
7494;DHT22;3788;49.902;8.590;2023-07-20T14:28:57;26.40;54.50
7494;DHT22;3788;49.902;8.590;2023-07-20T14:31:24;26.40;54.30
7494;DHT22;3788;49.902;8.590;2023-07-20T14:33:51;26.40;54.00
7494;DHT22;3788;49.902;8.590;2023-07-20T14:36:18;26.30;54.20
7494;DHT22;3788;49.902;8.590;2023-07-20T14:38:46;26.20;54.10
7494;DHT22;3788;49.902;8.590;2023-07-20T14:41:12;26.10;53.70
7494;DHT22;3788;49.902;8.590;2023-07-20T14:43:41;26.00;54.00
7494;DHT22;3788;49.902;8.590;2023-07-20T14:46:08;26.00;54.40
7494;DHT22;3788;49.902;8.590;2023-07-20T14:48:35;26.00;54.40
7494;DHT22;3788;49.902;8.590;2023-07-20T14:51:02;26.00;53.90
7494;DHT22;3788;49.902;8.590;2023-07-20T14:53:30;26.10;53.60
7494;DHT22;3788;49.902;8.590;2023-07-20T14:56:00;26.00;53.20
7494;DHT22;3788;49.902;8.590;2023-07-20T14:58:27;26.10;53.20
7494;DHT22;3788;49.902;8.590;2023-07-20T15:00:55;26.10;53.20
7494;DHT22;3788;49.902;8.590;2023-07-20T15:03:22;26.20;53.40
7494;DHT22;3788;49.902;8.590;2023-07-20T15:05:49;26.20;53.60
7494;DHT22;3788;49.902;8.590;2023-07-20T15:08:16;26.20;53.00
7494;DHT22;3788;49.902;8.590;2023-07-20T15:10:44;26.20;52.80
7494;DHT22;3788;49.902;8.590;2023-07-20T15:13:11;26.20;52.40
7494;DHT22;3788;49.902;8.590;2023-07-20T15:15:52;26.20;51.80
7494;DHT22;3788;49.902;8.590;2023-07-20T15:18:22;26.20;52.30
7494;DHT22;3788;49.902;8.590;2023-07-20T15:20:52;26.20;53.10
7494;DHT22;3788;49.902;8.590;2023-07-20T15:23:25;26.10;52.90
7494;DHT22;3788;49.902;8.590;2023-07-20T15:25:51;26.10;52.80
7494;DHT22;3788;49.902;8.590;2023-07-20T15:28:18;26.00;52.80
7494;DHT22;3788;49.902;8.590;2023-07-20T15:30:45;25.90;52.70
7494;DHT22;3788;49.902;8.590;2023-07-20T15:33:11;25.80;53.10
7494;DHT22;3788;49.902;8.590;2023-07-20T15:35:41;25.80;53.30
7494;DHT22;3788;49.902;8.590;2023-07-20T15:38:08;25.70;53.30
7494;DHT22;3788;49.902;8.590;2023-07-20T15:40:35;25.70;53.30
7494;DHT22;3788;49.902;8.590;2023-07-20T15:43:02;25.70;53.60
7494;DHT22;3788;49.902;8.590;2023-07-20T15:45:28;25.70;53.50
7494;DHT22;3788;49.902;8.590;2023-07-20T15:47:55;25.80;53.80
7494;DHT22;3788;49.902;8.590;2023-07-20T15:50:23;25.80;54.20
7494;DHT22;3788;49.902;8.590;2023-07-20T15:52:51;25.80;53.50
7494;DHT22;3788;49.902;8.590;2023-07-20T15:55:17;25.80;53.40
7494;DHT22;3788;49.902;8.590;2023-07-20T15:57:44;25.80;53.70
7494;DHT22;3788;49.902;8.590;2023-07-20T16:00:12;25.70;53.90
7494;DHT22;3788;49.902;8.590;2023-07-20T16:02:38;25.70;54.00
7494;DHT22;3788;49.902;8.590;2023-07-20T16:05:05;25.70;54.20
7494;DHT22;3788;49.902;8.590;2023-07-20T16:07:32;25.60;53.80